createdAt,value
2023-07-10T00:00:18.146Z,98983.75
2023-07-10T00:02:48.440Z,98977.50
2023-07-10T00:05:16.527Z,98975.97
2023-07-10T00:07:44.022Z,98974.41
2023-07-10T00:10:11.801Z,98969.13
2023-07-10T00:12:39.395Z,98964.91
2023-07-10T00:15:15.181Z,98963.84
2023-07-10T00:17:42.306Z,98963.78
2023-07-10T00:20:15.196Z,98966.63
2023-07-10T00:22:42.216Z,98968.72
2023-07-10T00:25:10.242Z,98967.91
2023-07-10T00:27:37.448Z,98968.97
2023-07-10T00:30:14.715Z,98968.16
2023-07-10T00:32:43.535Z,98968.91
2023-07-10T00:35:12.493Z,98965.22
2023-07-10T00:37:39.544Z,98972.25
2023-07-10T00:40:19.544Z,98956.91
2023-07-10T00:42:48.114Z,98961.56
2023-07-10T00:45:17.197Z,98955.56
2023-07-10T00:47:54.135Z,98954.22
2023-07-10T00:50:25.055Z,98952.66
2023-07-10T00:52:54.124Z,98954.72
2023-07-10T00:55:27.664Z,98958.34
2023-07-10T00:58:10.783Z,98966.63
2023-07-10T01:01:05.970Z,98949.41
2023-07-10T01:03:36.162Z,98949.88
2023-07-10T01:06:07.932Z,98953.19
2023-07-10T01:08:37.180Z,98957.88
2023-07-10T01:11:04.326Z,98951.38
2023-07-10T01:13:32.530Z,98955.47
2023-07-10T01:16:00.146Z,98960.88
2023-07-10T01:18:27.763Z,98953.03
2023-07-10T01:21:08.799Z,98960.50
2023-07-10T01:23:36.059Z,98956.84
2023-07-10T01:26:07.176Z,98966.16
2023-07-10T01:28:35.172Z,98958.28
2023-07-10T01:31:05.385Z,98952.00
2023-07-10T01:33:37.162Z,98953.53
2023-07-10T01:36:07.838Z,98953.53
2023-07-10T01:38:39.013Z,98956.38
2023-07-10T01:41:15.720Z,98962.59
2023-07-10T01:43:42.686Z,98960.25
2023-07-10T01:46:18.711Z,98956.28
2023-07-10T01:48:47.089Z,98957.88
2023-07-10T01:51:15.929Z,98958.66
2023-07-10T01:53:46.061Z,98959.22
2023-07-10T01:56:14.308Z,98957.41
2023-07-10T01:58:41.549Z,98960.72
2023-07-10T02:01:09.749Z,98956.50
2023-07-10T02:03:37.233Z,98967.34
2023-07-10T02:06:05.666Z,98962.16
2023-07-10T02:08:34.364Z,98967.03
2023-07-10T02:11:01.492Z,98969.06
2023-07-10T02:13:28.533Z,98967.19
2023-07-10T02:16:01.740Z,98965.34
2023-07-10T02:18:28.969Z,98969.97
2023-07-10T02:20:56.032Z,98968.91
2023-07-10T02:23:23.593Z,98980.56
2023-07-10T02:25:52.584Z,98976.84
2023-07-10T02:28:19.695Z,98979.91
2023-07-10T02:30:47.481Z,98983.53
2023-07-10T02:33:14.894Z,98977.03
2023-07-10T02:35:41.922Z,98973.34
2023-07-10T02:38:09.500Z,98978.22
2023-07-10T02:40:36.532Z,98978.75
2023-07-10T02:43:05.382Z,98989.38
2023-07-10T02:45:35.553Z,98986.22
2023-07-10T02:48:02.725Z,98984.44
2023-07-10T02:50:30.135Z,98999.22
2023-07-10T02:52:57.259Z,98992.44
2023-07-10T02:55:24.308Z,98988.06
2023-07-10T02:57:51.423Z,98982.88
2023-07-10T03:00:20.351Z,98979.72
2023-07-10T03:02:47.401Z,98992.16
2023-07-10T03:05:14.495Z,98987.97
2023-07-10T03:07:41.541Z,98995.75
2023-07-10T03:10:09.801Z,98996.84
2023-07-10T03:12:36.856Z,98998.44
2023-07-10T03:15:05.795Z,99001.56
2023-07-10T03:17:34.941Z,98999.53
2023-07-10T03:20:02.095Z,99002.66
2023-07-10T03:22:29.092Z,98996.22
2023-07-10T03:24:56.674Z,99004.88
2023-07-10T03:27:24.450Z,99009.88
2023-07-10T03:29:51.847Z,99012.00
2023-07-10T03:32:19.036Z,99015.69
2023-07-10T03:34:49.519Z,99020.72
2023-07-10T03:37:16.533Z,99021.38
2023-07-10T03:39:43.578Z,99019.63
2023-07-10T03:42:11.913Z,99032.41
2023-07-10T03:44:38.950Z,99023.19
2023-07-10T03:47:06.961Z,99028.44
2023-07-10T03:49:34.249Z,99027.72
2023-07-10T03:52:02.812Z,99029.59
2023-07-10T03:54:33.587Z,99027.50
2023-07-10T03:57:00.750Z,99036.94
2023-07-10T03:59:27.732Z,99033.63
2023-07-10T04:01:54.778Z,99036.03
2023-07-10T04:04:21.769Z,99030.41
2023-07-10T04:06:51.410Z,99033.66
2023-07-10T04:09:20.764Z,99034.78
2023-07-10T04:11:47.941Z,99028.63
2023-07-10T04:14:15.714Z,99026.25
2023-07-10T04:16:42.806Z,99026.13
2023-07-10T04:19:10.579Z,99035.63
2023-07-10T04:21:37.640Z,99032.88
2023-07-10T04:24:05.686Z,99028.25
2023-07-10T04:26:35.014Z,99033.22
2023-07-10T04:29:05.023Z,99034.09
2023-07-10T04:31:32.880Z,99029.72
2023-07-10T04:34:00.405Z,99028.75
2023-07-10T04:36:28.053Z,99027.88
2023-07-10T04:38:55.241Z,99035.03
2023-07-10T04:41:24.606Z,99026.25
2023-07-10T04:43:53.525Z,99025.00
2023-07-10T04:46:21.340Z,99031.09
2023-07-10T04:48:49.034Z,99028.81
2023-07-10T04:51:18.357Z,99023.34
2023-07-10T04:53:46.803Z,99030.66
2023-07-10T04:56:16.666Z,99026.50
2023-07-10T04:58:53.812Z,99033.03
2023-07-10T05:01:22.990Z,99026.22
2023-07-10T05:03:50.822Z,99018.91
2023-07-10T05:06:18.572Z,99023.84
2023-07-10T05:08:46.517Z,99027.22
2023-07-10T05:11:13.872Z,99027.19
2023-07-10T05:13:41.265Z,99040.69
2023-07-10T05:16:10.075Z,99027.72
2023-07-10T05:18:37.157Z,99031.81
2023-07-10T05:21:04.642Z,99034.28
2023-07-10T05:23:31.756Z,99033.34
2023-07-10T05:26:04.122Z,99029.78
2023-07-10T05:28:31.632Z,99025.50
2023-07-10T05:31:02.008Z,99029.28
2023-07-10T05:33:34.694Z,99025.13
2023-07-10T05:36:04.738Z,99024.69
2023-07-10T05:38:34.011Z,99025.63
2023-07-10T05:41:01.553Z,99014.22
2023-07-10T05:43:29.414Z,99019.25
2023-07-10T05:45:56.800Z,99010.69
2023-07-10T05:48:23.883Z,99014.56
2023-07-10T05:50:52.933Z,99014.25
2023-07-10T05:55:48.856Z,99002.78
2023-07-10T05:58:18.191Z,98987.84
2023-07-10T06:00:47.266Z,98998.66
2023-07-10T06:03:14.769Z,98995.69
2023-07-10T06:05:43.648Z,98991.44
2023-07-10T06:08:12.190Z,98998.38
2023-07-10T06:10:39.378Z,99001.19
2023-07-10T06:13:06.418Z,99007.22
2023-07-10T06:15:33.505Z,98991.41
2023-07-10T06:18:00.676Z,98993.13
2023-07-10T06:20:27.803Z,98996.41
2023-07-10T06:22:54.863Z,98995.75
2023-07-10T06:25:23.228Z,99006.84
2023-07-10T06:27:52.551Z,98996.56
2023-07-10T06:30:19.915Z,99001.69
2023-07-10T06:32:49.220Z,99008.13
2023-07-10T06:35:16.697Z,98999.19
2023-07-10T06:37:45.572Z,98991.75
2023-07-10T06:40:14.944Z,98987.28
2023-07-10T06:42:43.807Z,98996.09
2023-07-10T06:45:15.329Z,98999.69
2023-07-10T06:47:44.006Z,99002.25
2023-07-10T06:50:13.227Z,98997.69
2023-07-10T06:52:41.849Z,98993.53
2023-07-10T06:55:11.249Z,98998.69
2023-07-10T06:57:38.257Z,98995.91
2023-07-10T07:00:10.015Z,98993.91
2023-07-10T07:02:37.352Z,98998.63
2023-07-10T07:05:05.980Z,98985.84
2023-07-10T07:07:33.021Z,98992.22
2023-07-10T07:10:00.331Z,98996.88
2023-07-10T07:12:28.237Z,99003.25
2023-07-10T07:14:55.431Z,98992.84
2023-07-10T07:17:23.911Z,98987.22
2023-07-10T07:19:51.032Z,98989.38
2023-07-10T07:22:20.808Z,98999.00
2023-07-10T07:24:47.882Z,98996.19
2023-07-10T07:27:15.426Z,98995.69
2023-07-10T07:29:42.576Z,98993.81
2023-07-10T07:32:13.303Z,98994.72
2023-07-10T07:34:41.736Z,98987.91
2023-07-10T07:37:09.131Z,98988.13
2023-07-10T07:39:39.111Z,98987.31
2023-07-10T07:42:06.823Z,98978.59
2023-07-10T07:44:34.388Z,98978.25
2023-07-10T07:47:01.462Z,98978.25
2023-07-10T07:49:28.665Z,98981.66
2023-07-10T07:51:57.378Z,98975.28
2023-07-10T07:54:24.497Z,98975.19
2023-07-10T07:56:51.625Z,98974.56
2023-07-10T07:59:19.397Z,98976.41
2023-07-10T08:01:47.143Z,98975.09
2023-07-10T08:04:14.281Z,98966.72
2023-07-10T08:06:44.182Z,98959.09
2023-07-10T08:09:13.503Z,98961.94
2023-07-10T08:11:40.663Z,98959.19
2023-07-10T08:14:07.702Z,98959.44
2023-07-10T08:16:34.803Z,98947.16
2023-07-10T08:19:02.309Z,98947.84
2023-07-10T08:21:29.304Z,98944.97
2023-07-10T08:23:56.378Z,98946.25
2023-07-10T08:26:25.122Z,98952.44
2023-07-10T08:28:52.394Z,98953.63
2023-07-10T08:31:20.098Z,98937.59
2023-07-10T08:33:47.204Z,98935.66
2023-07-10T08:36:14.593Z,98934.06
2023-07-10T08:38:41.584Z,98938.56
2023-07-10T08:41:19.204Z,98932.31
2023-07-10T08:43:49.122Z,98945.28
2023-07-10T08:46:19.586Z,98936.88
2023-07-10T08:48:52.598Z,98942.47
2023-07-10T08:51:35.862Z,98932.25
2023-07-10T08:54:06.118Z,98946.06
2023-07-10T08:56:35.596Z,98934.91
2023-07-10T08:59:16.145Z,98937.56
2023-07-10T09:01:47.594Z,98935.56
2023-07-10T09:04:17.568Z,98938.72
2023-07-10T09:06:49.448Z,98938.03
2023-07-10T09:09:38.803Z,98945.47
2023-07-10T09:12:11.462Z,98933.59
2023-07-10T09:14:49.299Z,98941.44
2023-07-10T09:17:27.496Z,98935.03
2023-07-10T09:19:55.753Z,98937.88
2023-07-10T09:22:22.968Z,98931.50
2023-07-10T09:24:50.392Z,98933.41
2023-07-10T09:27:17.472Z,98930.66
2023-07-10T09:29:50.938Z,98940.31
2023-07-10T09:32:20.234Z,98924.84
2023-07-10T09:34:50.357Z,98930.38
2023-07-10T09:37:20.814Z,98928.22
2023-07-10T09:39:48.062Z,98928.44
2023-07-10T09:42:17.467Z,98922.53
2023-07-10T09:44:52.965Z,98919.59
2023-07-10T09:47:22.014Z,98902.09
2023-07-10T09:49:52.982Z,98904.28
2023-07-10T09:52:24.700Z,98897.25
2023-07-10T09:55:00.276Z,98898.38
2023-07-10T09:57:27.892Z,98903.59
2023-07-10T09:59:57.754Z,98890.38
2023-07-10T10:02:28.072Z,98897.63
2023-07-10T10:05:04.876Z,98888.25
2023-07-10T10:07:40.490Z,98895.91
2023-07-10T10:10:29.364Z,98888.13
2023-07-10T10:13:03.480Z,98889.34
2023-07-10T10:15:41.625Z,98883.13
2023-07-10T10:18:18.394Z,98887.38
2023-07-10T10:20:46.677Z,98884.41
2023-07-10T10:23:29.240Z,98879.78
2023-07-10T10:26:14.027Z,98890.78
2023-07-10T10:28:51.469Z,98883.63
2023-07-10T10:31:26.210Z,98882.69
2023-07-10T10:33:59.478Z,98875.81
2023-07-10T10:36:34.036Z,98871.19
2023-07-10T10:39:11.981Z,98875.88
2023-07-10T10:41:48.405Z,98867.78
2023-07-10T10:44:45.394Z,98872.63
2023-07-10T10:47:30.978Z,98867.81
2023-07-10T10:50:07.686Z,98862.19
2023-07-10T10:52:43.941Z,98857.69
2023-07-10T10:55:27.754Z,98867.09
2023-07-10T10:58:06.129Z,98858.78
2023-07-10T11:00:42.692Z,98870.53
2023-07-10T11:03:21.205Z,98856.81
2023-07-10T11:05:51.452Z,98860.00
2023-07-10T11:08:24.554Z,98855.50
2023-07-10T11:10:54.927Z,98844.75
2023-07-10T11:13:28.787Z,98844.91
2023-07-10T11:15:56.524Z,98843.19
2023-07-10T11:18:25.525Z,98844.53
2023-07-10T11:20:53.211Z,98845.41
2023-07-10T11:23:34.627Z,98841.16
2023-07-10T11:26:04.246Z,98826.66
2023-07-10T11:28:33.163Z,98823.28
2023-07-10T11:31:32.431Z,98823.44
2023-07-10T11:34:39.431Z,98825.38
2023-07-10T11:37:49.775Z,98833.03
2023-07-10T11:40:46.478Z,98825.47
2023-07-10T11:43:56.553Z,98828.59
2023-07-10T11:46:29.986Z,98822.06
2023-07-10T11:49:10.613Z,98826.22
2023-07-10T11:51:40.679Z,98834.59
2023-07-10T11:54:38.809Z,98827.88
2023-07-10T11:57:13.206Z,98823.84
2023-07-10T11:59:53.115Z,98829.13
2023-07-10T12:02:45.194Z,98826.19
2023-07-10T12:05:17.865Z,98820.25
2023-07-10T12:08:02.276Z,98816.69
2023-07-10T12:10:32.817Z,98813.75
2023-07-10T12:13:01.991Z,98808.97
2023-07-10T12:15:29.160Z,98820.16
2023-07-10T12:17:57.057Z,98817.97
2023-07-10T12:20:29.217Z,98808.97
2023-07-10T12:23:01.766Z,98790.88
2023-07-10T12:25:28.932Z,98798.66
2023-07-10T12:28:23.031Z,98787.63
2023-07-10T12:30:49.568Z,98790.69
2023-07-10T12:33:39.393Z,98785.72
2023-07-10T12:36:23.037Z,98789.63
2023-07-10T12:38:51.009Z,98789.25
2023-07-10T12:41:20.730Z,98782.34
2023-07-10T12:43:49.764Z,98776.28
2023-07-10T12:46:19.377Z,98769.69
2023-07-10T12:48:46.585Z,98772.38
2023-07-10T12:51:23.866Z,98767.75
2023-07-10T12:53:52.278Z,98768.09
2023-07-10T12:56:27.494Z,98765.28
2023-07-10T12:58:57.171Z,98761.81
2023-07-10T13:01:28.666Z,98764.75
2023-07-10T13:04:00.902Z,98759.06
2023-07-10T13:06:29.375Z,98754.81
2023-07-10T13:08:58.072Z,98746.59
2023-07-10T13:11:40.444Z,98751.63
2023-07-10T13:14:15.519Z,98761.13
2023-07-10T13:16:45.863Z,98759.63
2023-07-10T13:19:13.335Z,98748.09
2023-07-10T13:21:41.721Z,98748.22
2023-07-10T13:24:08.877Z,98752.97
2023-07-10T13:26:35.960Z,98751.34
2023-07-10T13:29:03.170Z,98736.78
2023-07-10T13:31:33.710Z,98743.25
2023-07-10T13:34:00.904Z,98739.22
2023-07-10T13:36:28.685Z,98741.59
2023-07-10T13:38:57.433Z,98735.97
2023-07-10T13:41:26.131Z,98726.22
2023-07-10T13:43:53.464Z,98737.09
2023-07-10T13:46:23.239Z,98725.22
2023-07-10T13:48:52.460Z,98727.28
2023-07-10T13:51:20.915Z,98729.88
2023-07-10T13:53:48.414Z,98728.72
2023-07-10T13:56:19.014Z,98730.59
2023-07-10T13:58:46.180Z,98724.00
2023-07-10T14:01:14.268Z,98726.34
2023-07-10T14:03:42.468Z,98719.09
2023-07-10T14:06:30.913Z,98719.97
2023-07-10T14:09:02.594Z,98718.31
2023-07-10T14:11:31.716Z,98713.66
2023-07-10T14:13:58.877Z,98710.44
2023-07-10T14:16:29.204Z,98713.16
2023-07-10T14:18:57.368Z,98711.78
2023-07-10T14:21:24.640Z,98705.31
2023-07-10T14:23:52.550Z,98712.50
2023-07-10T14:26:23.484Z,98713.91
2023-07-10T14:28:53.146Z,98716.06
2023-07-10T14:31:20.958Z,98707.59
2023-07-10T14:33:48.476Z,98705.59
2023-07-10T14:36:17.550Z,98701.84
2023-07-10T14:38:45.426Z,98699.16
2023-07-10T14:41:14.820Z,98703.34
2023-07-10T14:43:42.755Z,98690.78
2023-07-10T14:46:15.517Z,98694.41
2023-07-10T14:48:44.020Z,98687.44
2023-07-10T14:51:11.747Z,98690.03
2023-07-10T14:53:39.101Z,98686.16
2023-07-10T14:56:11.772Z,98685.59
2023-07-10T14:58:39.086Z,98685.59
2023-07-10T15:01:06.337Z,98679.56
2023-07-10T15:03:35.197Z,98681.81
2023-07-10T15:06:03.535Z,98685.91
2023-07-10T15:08:34.337Z,98686.06
2023-07-10T15:11:02.289Z,98676.81
2023-07-10T15:13:32.081Z,98681.97
2023-07-10T15:16:01.520Z,98689.56
2023-07-10T15:18:31.058Z,98686.00
2023-07-10T15:20:59.671Z,98681.31
2023-07-10T15:23:28.429Z,98680.75
2023-07-10T15:26:06.667Z,98667.31
2023-07-10T15:28:34.039Z,98675.16
2023-07-10T15:31:04.703Z,98663.50
2023-07-10T15:33:34.390Z,98664.75
2023-07-10T15:36:03.336Z,98667.94
2023-07-10T15:38:32.395Z,98662.91
2023-07-10T15:41:02.928Z,98669.97
2023-07-10T15:43:32.056Z,98665.63
2023-07-10T15:46:00.655Z,98677.50
2023-07-10T15:48:29.042Z,98664.41
2023-07-10T15:50:57.781Z,98665.97
2023-07-10T15:53:29.100Z,98669.06
2023-07-10T15:55:56.813Z,98656.25
2023-07-10T15:58:25.256Z,98659.59
2023-07-10T16:00:55.335Z,98651.91
2023-07-10T16:03:25.614Z,98660.81
2023-07-10T16:05:55.023Z,98660.97
2023-07-10T16:08:24.332Z,98659.22
2023-07-10T16:10:56.111Z,98659.50
2023-07-10T16:13:25.387Z,98660.50
2023-07-10T16:15:53.084Z,98655.31
2023-07-10T16:18:25.878Z,98661.03
2023-07-10T16:20:54.626Z,98656.88
2023-07-10T16:23:27.211Z,98646.84
2023-07-10T16:25:55.683Z,98664.78
2023-07-10T16:28:25.342Z,98661.38
2023-07-10T16:30:52.874Z,98656.63
2023-07-10T16:33:22.095Z,98659.75
2023-07-10T16:35:49.729Z,98654.47
2023-07-10T16:38:19.586Z,98660.13
2023-07-10T16:40:49.284Z,98656.50
2023-07-10T16:43:19.460Z,98656.25
2023-07-10T16:45:53.299Z,98660.88
2023-07-10T16:48:23.395Z,98660.56
2023-07-10T16:50:52.808Z,98662.88
2023-07-10T16:53:29.139Z,98667.94
2023-07-10T16:55:58.169Z,98674.88
2023-07-10T16:58:29.559Z,98662.69
2023-07-10T17:00:57.446Z,98668.09
2023-07-10T17:03:27.342Z,98672.03
2023-07-10T17:05:57.932Z,98676.78
2023-07-10T17:08:27.883Z,98670.78
2023-07-10T17:10:58.156Z,98669.97
2023-07-10T17:13:30.249Z,98679.38
2023-07-10T17:15:57.954Z,98676.03
2023-07-10T17:18:27.141Z,98674.34
2023-07-10T17:20:55.961Z,98683.91
2023-07-10T17:23:27.822Z,98680.66
2023-07-10T17:25:55.687Z,98684.47
2023-07-10T17:28:24.494Z,98681.44
2023-07-10T17:30:55.045Z,98684.94
2023-07-10T17:33:36.452Z,98693.69
2023-07-10T17:36:04.378Z,98689.25
2023-07-10T17:38:32.406Z,98678.25
2023-07-10T17:40:59.946Z,98688.84
2023-07-10T17:43:32.214Z,98694.16
2023-07-10T17:46:02.467Z,98697.00
2023-07-10T17:48:30.800Z,98697.66
2023-07-10T17:51:05.693Z,98686.97
2023-07-10T17:53:33.000Z,98694.75
2023-07-10T17:56:00.086Z,98692.28
2023-07-10T17:58:29.336Z,98691.66
2023-07-10T18:00:56.928Z,98693.84
2023-07-10T18:03:32.209Z,98686.25
2023-07-10T18:05:59.566Z,98693.25
2023-07-10T18:08:29.065Z,98682.19
2023-07-10T18:11:02.409Z,98693.66
2023-07-10T18:13:34.787Z,98695.81
2023-07-10T18:16:03.291Z,98696.59
2023-07-10T18:18:33.229Z,98701.34
2023-07-10T18:21:01.336Z,98699.47
2023-07-10T18:23:30.644Z,98708.41
2023-07-10T18:25:59.284Z,98718.56
2023-07-10T18:28:28.500Z,98714.38
2023-07-10T18:30:57.174Z,98716.66
2023-07-10T18:33:26.262Z,98714.00
2023-07-10T18:35:57.867Z,98717.06
2023-07-10T18:38:27.337Z,98715.94
2023-07-10T18:40:58.700Z,98714.19
2023-07-10T18:43:30.842Z,98724.97
2023-07-10T18:45:58.546Z,98717.47
2023-07-10T18:48:33.603Z,98735.06
2023-07-10T18:51:07.054Z,98734.69
2023-07-10T18:53:34.407Z,98733.88
2023-07-10T18:56:01.369Z,98730.09
2023-07-10T18:58:30.433Z,98736.53
2023-07-10T19:00:59.035Z,98729.38
2023-07-10T19:03:26.352Z,98734.06
2023-07-10T19:05:54.971Z,98736.56
2023-07-10T19:08:25.373Z,98738.06
2023-07-10T19:10:53.331Z,98741.09
2023-07-10T19:13:22.481Z,98747.81
2023-07-10T19:15:55.351Z,98736.94
2023-07-10T19:18:25.473Z,98740.72
2023-07-10T19:20:52.963Z,98748.69
2023-07-10T19:23:22.021Z,98740.16
2023-07-10T19:25:51.070Z,98742.88
2023-07-10T19:28:19.254Z,98738.50
2023-07-10T19:30:52.275Z,98754.41
2023-07-10T19:33:24.348Z,98750.59
2023-07-10T19:35:52.326Z,98756.75
2023-07-10T19:38:21.597Z,98752.66
2023-07-10T19:40:51.808Z,98757.41
2023-07-10T19:43:18.970Z,98756.94
2023-07-10T19:45:47.343Z,98758.56
2023-07-10T19:48:16.282Z,98761.50
2023-07-10T19:50:43.875Z,98751.28
2023-07-10T19:53:22.601Z,98761.84
2023-07-10T19:55:52.995Z,98758.53
2023-07-10T19:58:23.606Z,98761.72
2023-07-10T20:00:50.698Z,98760.19
2023-07-10T20:03:20.123Z,98769.41
2023-07-10T20:05:48.203Z,98762.13
2023-07-10T20:08:19.616Z,98759.28
2023-07-10T20:10:48.597Z,98760.63
2023-07-10T20:13:18.575Z,98756.59
2023-07-10T20:15:48.924Z,98760.91
2023-07-10T20:18:23.416Z,98749.03
2023-07-10T20:20:51.333Z,98755.22
2023-07-10T20:23:20.220Z,98749.56
2023-07-10T20:25:49.714Z,98752.31
2023-07-10T20:28:20.862Z,98762.66
2023-07-10T20:30:49.586Z,98763.03
2023-07-10T20:33:18.489Z,98766.72
2023-07-10T20:35:46.094Z,98757.81
2023-07-10T20:38:15.669Z,98762.56
2023-07-10T20:40:42.800Z,98756.84
2023-07-10T20:43:16.167Z,98763.44
2023-07-10T20:45:47.983Z,98752.50
2023-07-10T20:48:21.908Z,98757.50
2023-07-10T20:50:51.309Z,98755.94
2023-07-10T20:53:19.688Z,98758.00
2023-07-10T20:55:49.403Z,98758.44
2023-07-10T20:58:18.251Z,98760.78
2023-07-10T21:00:48.017Z,98762.25
2023-07-10T21:03:17.658Z,98759.94
2023-07-10T21:05:45.979Z,98769.09
2023-07-10T21:08:24.333Z,98763.84
2023-07-10T21:10:53.364Z,98765.19
2023-07-10T21:13:22.017Z,98764.38
2023-07-10T21:15:50.693Z,98759.28
2023-07-10T21:18:22.824Z,98763.53
2023-07-10T21:20:50.963Z,98762.44
2023-07-10T21:23:25.758Z,98754.09
2023-07-10T21:25:53.256Z,98750.19
2023-07-10T21:28:24.074Z,98754.84
2023-07-10T21:30:52.833Z,98752.34
2023-07-10T21:33:21.411Z,98744.56
2023-07-10T21:35:51.903Z,98751.97
2023-07-10T21:38:18.978Z,98758.00
2023-07-10T21:40:47.048Z,98757.47
2023-07-10T21:43:28.540Z,98759.31
2023-07-10T21:45:57.117Z,98753.59
2023-07-10T21:48:28.006Z,98754.59
2023-07-10T21:50:56.673Z,98746.66
2023-07-10T21:53:24.854Z,98752.69
2023-07-10T21:55:53.662Z,98754.50
2023-07-10T21:58:24.905Z,98760.13
2023-07-10T22:00:53.064Z,98757.31
2023-07-10T22:03:26.288Z,98763.88
2023-07-10T22:05:55.087Z,98753.66
2023-07-10T22:08:22.857Z,98754.44
2023-07-10T22:10:51.727Z,98747.19
2023-07-10T22:13:21.246Z,98753.75
2023-07-10T22:15:50.514Z,98765.56
2023-07-10T22:18:19.296Z,98763.22
2023-07-10T22:20:49.620Z,98762.25
2023-07-10T22:23:16.787Z,98770.88
2023-07-10T22:25:44.137Z,98768.75
2023-07-10T22:28:16.369Z,98767.00
2023-07-10T22:30:45.880Z,98772.78
2023-07-10T22:33:14.209Z,98764.19
2023-07-10T22:35:41.825Z,98762.13
2023-07-10T22:38:12.442Z,98763.94
2023-07-10T22:40:40.804Z,98761.59
2023-07-10T22:43:12.114Z,98773.63
2023-07-10T22:45:39.704Z,98772.31
2023-07-10T22:48:11.336Z,98781.72
2023-07-10T22:50:40.387Z,98778.03
2023-07-10T22:53:07.616Z,98780.66
2023-07-10T22:55:36.317Z,98778.31
2023-07-10T22:58:04.445Z,98772.06
2023-07-10T23:00:34.284Z,98771.84
2023-07-10T23:03:01.708Z,98768.19
2023-07-10T23:05:32.066Z,98772.34
2023-07-10T23:07:59.223Z,98776.28
2023-07-10T23:10:28.586Z,98778.72
2023-07-10T23:12:57.344Z,98777.16
2023-07-10T23:15:24.706Z,98777.16
2023-07-10T23:17:51.907Z,98778.19
2023-07-10T23:20:22.675Z,98777.72
2023-07-10T23:22:52.122Z,98772.78
2023-07-10T23:25:19.231Z,98782.22
2023-07-10T23:27:46.536Z,98778.31
2023-07-10T23:30:16.084Z,98777.31
2023-07-10T23:32:43.283Z,98780.97
2023-07-10T23:35:12.026Z,98771.34
2023-07-10T23:37:39.105Z,98767.97
2023-07-10T23:40:15.682Z,98768.50
2023-07-10T23:42:43.676Z,98759.16
2023-07-10T23:45:12.112Z,98757.13
2023-07-10T23:47:41.601Z,98762.91
2023-07-10T23:50:10.964Z,98763.19
2023-07-10T23:52:38.578Z,98759.31
2023-07-10T23:55:08.335Z,98763.50
2023-07-10T23:57:35.541Z,98770.31
